createdAt,value
2019-05-16T00:01:02.940Z,51.00
2019-05-16T00:04:08.735Z,50.20
2019-05-16T00:07:13.485Z,51.60
2019-05-16T00:10:18.652Z,50.40
2019-05-16T00:13:23.098Z,50.70
2019-05-16T00:16:28.789Z,50.40
2019-05-16T00:19:33.139Z,50.80
2019-05-16T00:22:39.477Z,51.60
2019-05-16T00:25:43.337Z,50.40
2019-05-16T00:28:48.486Z,52.60
2019-05-16T00:31:52.957Z,50.40
2019-05-16T00:34:58.360Z,50.40
2019-05-16T00:38:02.762Z,50.40
2019-05-16T00:41:08.512Z,50.20
2019-05-16T00:44:12.866Z,49.90
2019-05-16T00:47:17.899Z,50.30
2019-05-16T00:50:22.346Z,50.00
2019-05-16T00:53:28.713Z,50.60
2019-05-16T00:56:33.087Z,50.00
2019-05-16T00:59:38.850Z,50.50
2019-05-16T01:02:43.119Z,50.30
2019-05-16T01:05:48.174Z,50.70
2019-05-16T01:08:52.611Z,52.00
2019-05-16T01:11:57.951Z,51.00
2019-05-16T01:15:02.546Z,50.70
2019-05-16T01:18:08.027Z,50.90
2019-05-16T01:21:12.545Z,51.10
2019-05-16T01:24:18.790Z,50.80
2019-05-16T01:27:22.728Z,52.00
2019-05-16T01:30:28.702Z,51.10
2019-05-16T01:33:33.235Z,51.30
2019-05-16T01:36:40.668Z,51.90
2019-05-16T01:39:43.539Z,51.10
2019-05-16T01:42:48.999Z,51.70
2019-05-16T01:45:53.537Z,51.70
2019-05-16T01:48:57.919Z,52.20
2019-05-16T01:52:02.168Z,52.10
2019-05-16T01:55:08.236Z,51.50
2019-05-16T01:58:12.794Z,51.60
2019-05-16T02:01:18.942Z,52.20
2019-05-16T02:04:23.011Z,53.20
2019-05-16T02:07:28.366Z,53.80
2019-05-16T02:10:32.773Z,52.70
2019-05-16T02:13:39.090Z,53.60
2019-05-16T02:16:43.032Z,52.80
2019-05-16T02:19:48.556Z,52.60
2019-05-16T02:22:52.911Z,52.60
2019-05-16T02:25:57.948Z,52.50
2019-05-16T02:29:02.415Z,52.90
2019-05-16T02:32:06.635Z,52.80
2019-05-16T02:35:11.945Z,53.20
2019-05-16T02:38:16.514Z,53.10
2019-05-16T02:41:21.575Z,53.90
2019-05-16T02:44:26.082Z,54.00
2019-05-16T02:47:31.488Z,53.50
2019-05-16T02:50:36.307Z,54.00
2019-05-16T02:53:41.553Z,53.70
2019-05-16T02:56:46.317Z,54.80
2019-05-16T02:59:51.139Z,55.30
2019-05-16T03:02:55.592Z,54.90
2019-05-16T03:06:01.565Z,55.70
2019-05-16T03:09:10.917Z,56.00
2019-05-16T03:12:14.415Z,56.40
2019-05-16T03:15:21.845Z,55.70
2019-05-16T03:18:26.445Z,55.70
2019-05-16T03:21:34.209Z,56.60
2019-05-16T03:24:41.757Z,56.90
2019-05-16T03:27:44.412Z,57.90
2019-05-16T03:30:53.696Z,57.00
2019-05-16T03:33:59.122Z,57.40
2019-05-16T03:37:04.220Z,58.40
2019-05-16T03:40:06.787Z,57.00
2019-05-16T03:43:11.568Z,56.30
2019-05-16T03:46:16.261Z,57.10
2019-05-16T03:49:21.199Z,56.90
2019-05-16T03:52:25.841Z,56.40
2019-05-16T03:55:32.524Z,56.30
2019-05-16T03:58:36.100Z,55.80
2019-05-16T04:01:41.076Z,56.60
2019-05-16T04:04:45.607Z,56.30
2019-05-16T04:07:53.147Z,56.20
2019-05-16T04:10:56.227Z,55.60
2019-05-16T04:14:01.463Z,55.90
2019-05-16T04:17:06.011Z,56.60
2019-05-16T04:20:11.507Z,57.30
2019-05-16T04:23:16.448Z,56.10
2019-05-16T04:26:21.651Z,56.50
2019-05-16T04:29:26.438Z,56.30
2019-05-16T04:32:31.484Z,56.30
2019-05-16T04:35:36.037Z,56.90
2019-05-16T04:38:45.362Z,58.40
2019-05-16T04:41:46.373Z,57.80
2019-05-16T04:44:51.543Z,59.10
2019-05-16T04:47:56.120Z,57.90
2019-05-16T04:51:01.325Z,59.50
2019-05-16T04:54:07.177Z,59.30
2019-05-16T04:57:12.102Z,58.60
2019-05-16T05:00:20.865Z,59.50
2019-05-16T05:03:25.552Z,59.60
2019-05-16T05:06:31.248Z,59.20
2019-05-16T05:09:35.984Z,59.10
2019-05-16T05:12:41.007Z,57.50
2019-05-16T05:15:45.502Z,58.00
2019-05-16T05:18:51.403Z,57.50
2019-05-16T05:21:55.599Z,57.30
2019-05-16T05:25:00.268Z,57.70
2019-05-16T05:28:04.639Z,57.20
2019-05-16T05:31:10.837Z,57.30
2019-05-16T05:34:14.781Z,57.40
2019-05-16T05:37:20.452Z,57.30
2019-05-16T05:40:24.789Z,57.20
2019-05-16T05:43:30.583Z,58.50
2019-05-16T05:46:34.982Z,57.80
2019-05-16T05:49:40.486Z,57.90
2019-05-16T05:52:46.236Z,58.00
2019-05-16T05:55:51.535Z,57.60
2019-05-16T05:58:58.261Z,57.50
2019-05-16T06:02:02.415Z,58.30
2019-05-16T06:05:07.788Z,59.20
2019-05-16T06:08:12.102Z,59.00
2019-05-16T06:11:16.284Z,58.70
2019-05-16T06:14:21.322Z,59.90
2019-05-16T06:17:25.708Z,59.80
2019-05-16T06:20:31.760Z,59.40
2019-05-16T06:23:35.945Z,59.20
2019-05-16T06:26:40.336Z,61.10
2019-05-16T06:29:44.617Z,59.30
2019-05-16T06:32:50.187Z,59.80
2019-05-16T06:35:54.561Z,58.40
2019-05-16T06:39:00.239Z,58.60
2019-05-16T06:42:09.678Z,59.90
2019-05-16T06:45:14.293Z,58.50
2019-05-16T06:48:20.786Z,58.30
2019-05-16T06:51:24.439Z,59.20
2019-05-16T06:54:29.897Z,59.10
2019-05-16T06:57:34.495Z,58.30
2019-05-16T07:00:40.587Z,58.40
2019-05-16T07:03:44.686Z,58.70
2019-05-16T07:06:58.704Z,58.40
2019-05-16T07:10:03.576Z,58.40
2019-05-16T07:13:00.889Z,58.60
2019-05-16T07:16:05.270Z,58.90
2019-05-16T07:19:10.495Z,58.20
2019-05-16T07:22:14.956Z,57.60
2019-05-16T07:25:20.776Z,58.00
2019-05-16T07:28:25.505Z,57.60
2019-05-16T07:31:30.153Z,58.00
2019-05-16T07:34:34.512Z,57.60
2019-05-16T07:37:39.896Z,57.30
2019-05-16T07:40:44.454Z,57.40
2019-05-16T07:43:50.539Z,57.20
2019-05-16T07:46:55.598Z,57.30
2019-05-16T07:49:59.823Z,57.10
2019-05-16T07:53:04.119Z,57.20
2019-05-16T07:56:10.455Z,56.30
2019-05-16T07:59:14.348Z,57.20
2019-05-16T08:02:20.928Z,56.80
2019-05-16T08:05:24.644Z,57.90
2019-05-16T08:08:31.471Z,57.50
2019-05-16T08:11:35.003Z,56.10
2019-05-16T08:14:40.935Z,54.80
2019-05-16T08:17:45.236Z,54.80
2019-05-16T08:20:52.216Z,54.70
2019-05-16T08:23:55.500Z,55.40
2019-05-16T08:27:01.187Z,53.40
2019-05-16T08:30:06.588Z,53.80
2019-05-16T08:33:13.516Z,52.80
2019-05-16T08:36:16.842Z,54.00
2019-05-16T08:39:21.492Z,52.10
2019-05-16T08:42:25.971Z,51.30
2019-05-16T08:45:31.559Z,51.70
2019-05-16T08:48:36.546Z,51.60
2019-05-16T08:51:42.625Z,51.00
2019-05-16T08:54:46.930Z,50.70
2019-05-16T08:57:54.298Z,51.30
2019-05-16T09:00:57.276Z,52.10
2019-05-16T09:04:02.417Z,50.10
2019-05-16T09:07:06.731Z,50.40
2019-05-16T09:10:45.751Z,50.00
2019-05-16T09:13:18.660Z,49.50
2019-05-16T09:16:22.848Z,50.50
2019-05-16T09:19:27.592Z,48.60
2019-05-16T09:22:32.145Z,48.10
2019-05-16T09:25:36.999Z,49.80
2019-05-16T09:28:41.447Z,48.60
2019-05-16T09:32:07.291Z,49.30
2019-05-16T09:34:51.712Z,49.90
2019-05-16T09:37:57.603Z,49.60
2019-05-16T09:41:01.938Z,49.90
2019-05-16T09:44:08.672Z,49.20
2019-05-16T09:47:12.273Z,49.50
2019-05-16T09:50:18.184Z,50.10
2019-05-16T09:53:22.390Z,50.90
2019-05-16T09:56:27.128Z,49.90
2019-05-16T09:59:31.581Z,48.20
2019-05-16T10:02:36.752Z,48.30
2019-05-16T10:05:41.231Z,48.20
2019-05-16T10:08:46.414Z,48.80
2019-05-16T10:12:05.505Z,49.60
2019-05-16T10:14:59.566Z,48.10
2019-05-16T10:18:02.797Z,48.40
2019-05-16T10:21:08.024Z,49.40
2019-05-16T10:24:12.483Z,48.80
2019-05-16T10:27:17.293Z,48.20
2019-05-16T10:30:21.972Z,47.50
2019-05-16T10:33:27.601Z,48.30
2019-05-16T10:36:31.978Z,46.30
2019-05-16T10:39:37.422Z,45.50
2019-05-16T10:42:42.012Z,46.60
2019-05-16T10:45:46.532Z,45.10
2019-05-16T10:48:50.862Z,46.00
2019-05-16T10:51:57.554Z,46.60
2019-05-16T10:55:02.707Z,45.20
2019-05-16T10:58:07.825Z,46.30
2019-05-16T11:01:24.205Z,47.00
2019-05-16T11:04:28.438Z,46.10
2019-05-16T11:07:29.415Z,46.80
2019-05-16T11:10:31.479Z,47.30
2019-05-16T11:13:37.065Z,47.40
2019-05-16T11:16:41.477Z,46.80
2019-05-16T11:19:46.566Z,47.60
2019-05-16T11:22:51.042Z,45.60
2019-05-16T11:25:56.088Z,47.30
2019-05-16T11:29:01.342Z,46.60
2019-05-16T11:32:06.950Z,45.20
2019-05-16T11:35:11.680Z,47.10
2019-05-16T11:38:17.720Z,46.00
2019-05-16T11:41:22.085Z,45.50
2019-05-16T11:44:28.730Z,45.20
2019-05-16T11:47:32.346Z,46.80
2019-05-16T11:50:37.383Z,45.50
2019-05-16T11:53:41.853Z,44.90
2019-05-16T11:56:46.462Z,45.00
2019-05-16T11:59:50.991Z,46.00
2019-05-16T12:02:55.259Z,45.00
2019-05-16T12:05:59.559Z,46.50
2019-05-16T12:09:06.696Z,45.90
2019-05-16T12:12:11.057Z,44.90
2019-05-16T12:15:19.410Z,45.00
2019-05-16T12:18:21.911Z,45.00
2019-05-16T12:21:27.473Z,46.10
2019-05-16T12:24:37.451Z,46.20
2019-05-16T12:27:42.175Z,46.30
2019-05-16T12:30:43.770Z,46.10
2019-05-16T12:33:48.219Z,45.20
2019-05-16T12:36:52.572Z,46.40
2019-05-16T12:39:57.346Z,44.20
2019-05-16T12:43:01.846Z,44.50
2019-05-16T12:46:07.482Z,44.50
2019-05-16T12:49:12.163Z,45.20
2019-05-16T12:52:16.502Z,45.20
2019-05-16T12:55:20.781Z,45.30
2019-05-16T12:58:37.027Z,43.90
2019-05-16T13:01:34.353Z,44.40
2019-05-16T13:04:37.755Z,44.60
2019-05-16T13:07:42.192Z,46.00
2019-05-16T13:10:47.103Z,45.80
2019-05-16T13:14:03.404Z,46.00
2019-05-16T13:16:57.552Z,46.30
2019-05-16T13:20:02.192Z,45.00
2019-05-16T13:23:14.207Z,45.50
2019-05-16T13:26:12.703Z,45.60
2019-05-16T13:29:18.142Z,46.00
2019-05-16T13:32:22.702Z,45.60
2019-05-16T13:35:27.238Z,45.80
2019-05-16T13:38:31.577Z,47.30
2019-05-16T13:41:37.911Z,45.90
2019-05-16T13:44:41.729Z,46.30
2019-05-16T13:47:48.445Z,47.00
2019-05-16T13:50:51.905Z,46.40
2019-05-16T13:53:56.084Z,46.00
2019-05-16T13:57:00.304Z,45.70
2019-05-16T14:00:07.495Z,46.90
2019-05-16T14:03:12.092Z,45.60
2019-05-16T14:06:18.440Z,45.70
2019-05-16T14:09:22.349Z,45.60
2019-05-16T14:12:26.861Z,46.40
2019-05-16T14:15:31.101Z,46.60
2019-05-16T14:18:37.586Z,46.00
2019-05-16T14:21:41.444Z,46.40
2019-05-16T14:24:48.239Z,46.00
2019-05-16T14:27:51.594Z,45.40
2019-05-16T14:30:57.278Z,46.50
2019-05-16T14:34:01.733Z,45.60
2019-05-16T14:37:07.272Z,45.00
2019-05-16T14:40:12.941Z,44.00
2019-05-16T14:43:17.575Z,43.50
2019-05-16T14:46:21.916Z,43.60
2019-05-16T14:49:28.891Z,43.90
2019-05-16T14:52:32.187Z,44.90
2019-05-16T14:55:38.128Z,44.90
2019-05-16T14:58:42.772Z,45.70
2019-05-16T15:01:47.401Z,45.90
2019-05-16T15:04:51.831Z,46.70
2019-05-16T15:07:56.958Z,46.80
2019-05-16T15:11:01.371Z,47.60
2019-05-16T15:14:07.111Z,47.30
2019-05-16T15:17:11.694Z,47.10
2019-05-16T15:20:18.227Z,47.30
2019-05-16T15:23:22.014Z,48.00
2019-05-16T15:26:27.187Z,48.40
2019-05-16T15:29:31.587Z,48.30
2019-05-16T15:32:38.428Z,48.00
2019-05-16T15:35:41.946Z,48.10
2019-05-16T15:38:47.254Z,49.00
2019-05-16T15:41:51.679Z,48.90
2019-05-16T15:44:55.957Z,48.30
2019-05-16T15:48:00.764Z,48.50
2019-05-16T15:51:08.086Z,49.40
2019-05-16T15:54:17.804Z,48.30
2019-05-16T15:57:21.253Z,48.50
2019-05-16T16:00:40.237Z,48.50
2019-05-16T16:03:47.064Z,49.00
2019-05-16T16:06:50.605Z,48.30
2019-05-16T16:09:57.516Z,49.00
2019-05-16T16:13:01.297Z,48.50
2019-05-16T16:16:10.099Z,48.50
2019-05-16T16:19:11.724Z,48.80
2019-05-16T16:22:17.762Z,49.50
2019-05-16T16:25:22.082Z,49.00
2019-05-16T16:28:27.080Z,48.80
2019-05-16T16:31:31.798Z,49.40
2019-05-16T16:34:36.741Z,48.80
2019-05-16T16:37:41.153Z,48.40
2019-05-16T16:40:47.782Z,49.60
2019-05-16T16:43:51.547Z,49.00
2019-05-16T16:46:57.306Z,49.00
2019-05-16T16:50:01.759Z,49.10
2019-05-16T16:53:07.101Z,49.00
2019-05-16T16:56:11.591Z,49.40
2019-05-16T16:59:17.277Z,48.90
2019-05-16T17:02:21.794Z,49.30
2019-05-16T17:05:26.598Z,49.60
2019-05-16T17:08:31.115Z,49.50
2019-05-16T17:11:37.064Z,49.60
2019-05-16T17:14:41.586Z,49.60
2019-05-16T17:17:46.605Z,49.90
2019-05-16T17:20:51.159Z,50.00
2019-05-16T17:23:56.901Z,49.40
2019-05-16T17:27:01.294Z,50.20
2019-05-16T17:30:08.950Z,50.30
2019-05-16T17:33:18.336Z,50.90
2019-05-16T17:36:22.093Z,51.10
2019-05-16T17:39:27.476Z,50.20
2019-05-16T17:42:34.471Z,50.10
2019-05-16T17:45:37.834Z,50.00
2019-05-16T17:48:42.224Z,50.00
2019-05-16T17:51:47.246Z,49.40
2019-05-16T17:54:53.290Z,50.20
2019-05-16T17:57:57.861Z,49.50
2019-05-16T18:01:02.171Z,49.80
2019-05-16T18:04:06.590Z,50.20
2019-05-16T18:07:10.875Z,51.20
2019-05-16T18:10:15.403Z,50.40
2019-05-16T18:13:19.653Z,49.60
2019-05-16T18:16:23.891Z,49.70
2019-05-16T18:19:28.072Z,50.20
2019-05-16T18:22:32.411Z,50.80
2019-05-16T18:25:36.833Z,50.50
2019-05-16T18:28:41.158Z,50.50
2019-05-16T18:31:47.194Z,51.10
2019-05-16T18:34:51.398Z,50.90
2019-05-16T18:37:56.953Z,51.10
2019-05-16T18:41:01.399Z,50.90
2019-05-16T18:44:05.876Z,51.00
2019-05-16T18:47:11.538Z,51.00
2019-05-16T18:50:18.021Z,51.70
2019-05-16T18:53:22.714Z,51.00
2019-05-16T18:56:27.259Z,51.10
2019-05-16T18:59:31.682Z,51.50
2019-05-16T19:02:36.863Z,51.60
2019-05-16T19:05:41.359Z,51.60
2019-05-16T19:08:45.560Z,51.40
2019-05-16T19:11:49.891Z,51.60
2019-05-16T19:14:54.180Z,51.30
2019-05-16T19:17:58.706Z,51.60
2019-05-16T19:21:03.098Z,51.80
2019-05-16T19:24:07.454Z,52.30
2019-05-16T19:27:11.754Z,51.50
2019-05-16T19:30:16.708Z,51.90
2019-05-16T19:33:21.050Z,52.90
2019-05-16T19:36:27.112Z,52.00
2019-05-16T19:39:31.567Z,52.60
2019-05-16T19:42:36.798Z,54.00
2019-05-16T19:45:41.318Z,52.50
2019-05-16T19:48:46.482Z,52.20
2019-05-16T19:51:50.917Z,52.50
2019-05-16T19:54:56.455Z,52.20
2019-05-16T19:58:00.810Z,53.50
2019-05-16T20:01:05.157Z,52.40
2019-05-16T20:04:09.352Z,52.80
2019-05-16T20:07:13.759Z,53.80
2019-05-16T20:10:18.249Z,53.80
2019-05-16T20:13:22.581Z,53.50
2019-05-16T20:16:27.414Z,54.70
2019-05-16T20:19:31.919Z,54.10
2019-05-16T20:22:36.962Z,54.70
2019-05-16T20:25:41.525Z,55.20
2019-05-16T20:28:49.194Z,55.40
2019-05-16T20:31:53.538Z,53.50
2019-05-16T20:34:57.753Z,53.30
2019-05-16T20:38:02.089Z,55.20
2019-05-16T20:41:07.860Z,55.60
2019-05-16T20:44:12.447Z,55.80
2019-05-16T20:47:16.765Z,55.30
2019-05-16T20:50:21.115Z,56.00
2019-05-16T20:53:27.205Z,54.60
2019-05-16T20:56:31.552Z,55.90
2019-05-16T20:59:35.864Z,57.60
2019-05-16T21:02:40.284Z,58.30
2019-05-16T21:05:47.696Z,56.70
2019-05-16T21:08:50.633Z,57.50
2019-05-16T21:11:56.978Z,57.90
2019-05-16T21:15:01.060Z,58.80
2019-05-16T21:18:07.315Z,58.50
2019-05-16T21:21:11.539Z,57.50
2019-05-16T21:24:15.803Z,57.20
2019-05-16T21:27:20.115Z,56.10
2019-05-16T21:30:24.406Z,57.60
2019-05-16T21:33:28.647Z,59.20
2019-05-16T21:36:32.872Z,58.20
2019-05-16T21:39:37.186Z,58.70
2019-05-16T21:42:41.490Z,58.50
2019-05-16T21:45:47.383Z,59.60
2019-05-16T21:48:51.967Z,59.90
2019-05-16T21:51:57.085Z,60.00
2019-05-16T21:55:01.556Z,61.20
2019-05-16T21:58:05.921Z,61.00
2019-05-16T22:01:13.509Z,60.40
2019-05-16T22:04:17.757Z,61.80
2019-05-16T22:07:32.798Z,61.80
2019-05-16T22:10:28.057Z,59.80
2019-05-16T22:13:32.522Z,58.60
2019-05-16T22:16:37.144Z,60.10
2019-05-16T22:19:41.573Z,58.50
2019-05-16T22:22:46.891Z,58.30
2019-05-16T22:25:51.396Z,57.80
2019-05-16T22:28:57.479Z,58.30
2019-05-16T22:32:01.672Z,59.30
2019-05-16T22:35:07.881Z,58.40
2019-05-16T22:38:12.110Z,57.60
2019-05-16T22:41:17.305Z,57.40
2019-05-16T22:44:21.713Z,56.70
2019-05-16T22:47:26.659Z,57.00
2019-05-16T22:50:31.012Z,57.20
2019-05-16T22:53:36.866Z,57.10
2019-05-16T22:56:41.241Z,58.00
2019-05-16T22:59:45.455Z,56.70
2019-05-16T23:02:49.734Z,57.70
2019-05-16T23:05:56.415Z,57.90
2019-05-16T23:09:00.135Z,57.70
2019-05-16T23:12:04.503Z,57.80
2019-05-16T23:15:09.007Z,58.70
2019-05-16T23:18:13.311Z,59.40
2019-05-16T23:21:17.538Z,58.50
2019-05-16T23:24:21.841Z,57.60
2019-05-16T23:27:27.277Z,58.00
2019-05-16T23:30:31.697Z,57.80
2019-05-16T23:33:36.615Z,58.60
2019-05-16T23:36:41.149Z,57.20
2019-05-16T23:39:47.463Z,57.30
2019-05-16T23:42:51.839Z,58.10
2019-05-16T23:45:56.441Z,57.60
2019-05-16T23:49:00.924Z,57.90
2019-05-16T23:52:07.271Z,58.30
2019-05-16T23:55:11.223Z,57.80
2019-05-16T23:58:15.503Z,58.40
